createdAt,value
2022-08-03T03:16:41.536Z,92.63
2022-08-03T03:19:57.091Z,92.66
2022-08-03T03:23:09.010Z,92.69
2022-08-03T03:26:19.283Z,92.44
2022-08-03T03:29:30.354Z,92.99
2022-08-03T03:32:48.908Z,94.24
2022-08-03T03:36:00.470Z,94.66
2022-08-03T03:39:16.026Z,94.74
2022-08-03T03:42:31.277Z,94.96
2022-08-03T03:45:42.454Z,95.49
2022-08-03T03:48:54.281Z,95.80
2022-08-03T03:52:09.775Z,95.86
2022-08-03T03:55:21.686Z,95.54
2022-08-03T03:58:33.259Z,95.06
2022-08-03T04:01:46.219Z,95.65
2022-08-03T04:05:06.695Z,95.07
2022-08-03T04:08:37.418Z,95.81
2022-08-03T04:11:51.161Z,95.89
2022-08-03T04:15:05.814Z,95.36
2022-08-03T04:18:17.458Z,95.60
2022-08-03T04:21:37.408Z,96.86
2022-08-03T04:24:56.313Z,97.46
2022-08-03T04:28:29.808Z,96.94
2022-08-03T04:31:37.620Z,97.41
2022-08-03T04:34:47.847Z,97.16
2022-08-03T04:38:04.514Z,97.55
2022-08-03T04:41:25.642Z,97.45
2022-08-03T04:44:38.490Z,97.29
2022-08-03T04:47:48.134Z,97.85
2022-08-03T04:50:58.333Z,97.48
2022-08-03T04:54:08.506Z,97.11
2022-08-03T04:57:22.955Z,95.81
2022-08-03T05:54:18.925Z,94.20
2022-08-03T05:57:28.778Z,93.52
2022-08-03T06:00:38.365Z,91.79
2022-08-03T06:03:48.408Z,90.11
2022-08-03T06:06:57.949Z,90.07
2022-08-03T06:10:35.438Z,89.53
2022-08-03T06:13:39.738Z,89.42
2022-08-03T06:16:49.294Z,89.69
2022-08-03T06:19:58.859Z,89.86
2022-08-03T06:23:15.999Z,89.16
2022-08-03T06:26:31.443Z,87.83
2022-08-03T06:29:41.008Z,86.59
2022-08-03T06:32:51.817Z,84.66
2022-08-03T06:36:09.160Z,83.73
2022-08-03T06:39:23.490Z,82.62
2022-08-03T06:42:34.638Z,82.57
2022-08-03T06:45:44.196Z,81.65
2022-08-03T06:48:57.319Z,81.22
2022-08-03T06:52:07.136Z,80.51
2022-08-03T07:10:48.560Z,73.38
2022-08-03T07:13:58.101Z,71.54
2022-08-03T07:17:11.713Z,70.97
2022-08-03T07:20:24.742Z,68.75
2022-08-03T07:23:34.467Z,68.96
2022-08-03T07:26:45.210Z,67.51
2022-08-03T07:29:57.828Z,66.43
2022-08-03T07:33:07.339Z,66.25
2022-08-03T07:36:17.015Z,65.52
2022-08-03T07:39:29.826Z,63.74
2022-08-03T07:42:43.705Z,64.22
2022-08-03T07:45:53.317Z,62.94
2022-08-03T07:49:02.822Z,60.81
2022-08-03T07:52:23.471Z,61.58
2022-08-03T07:55:38.098Z,55.05
2022-08-03T07:58:48.839Z,51.96
2022-08-03T08:02:00.690Z,49.41
2022-08-03T08:05:13.411Z,48.22
2022-08-03T08:08:26.024Z,47.25
2022-08-03T08:11:39.910Z,46.40
2022-08-03T08:14:51.248Z,44.34
2022-08-03T08:18:02.373Z,44.63
2022-08-03T08:21:11.898Z,43.93
2022-08-03T08:24:22.003Z,43.55
2022-08-03T08:28:30.666Z,42.42
2022-08-03T08:31:05.913Z,41.85
2022-08-03T08:34:18.151Z,40.88
2022-08-03T08:37:27.680Z,40.06
2022-08-03T08:40:37.138Z,39.09
2022-08-03T08:43:46.633Z,37.01
2022-08-03T08:47:03.172Z,37.33
2022-08-03T08:50:27.261Z,36.00
2022-08-03T08:53:44.802Z,36.41
2022-08-03T08:56:57.000Z,35.33
2022-08-03T09:00:10.240Z,34.86
2022-08-03T09:03:25.235Z,34.71
2022-08-03T09:06:39.442Z,34.46
2022-08-03T09:10:10.332Z,34.11
2022-08-03T09:13:20.474Z,34.81
2022-08-03T09:16:30.075Z,34.32
2022-08-03T09:20:03.448Z,35.22
2022-08-03T09:24:00.568Z,34.91
2022-08-03T09:26:53.584Z,34.44
2022-08-03T09:30:33.404Z,35.91
2022-08-03T09:33:48.463Z,35.46
2022-08-03T09:36:59.259Z,34.17
2022-08-03T09:40:10.103Z,33.89
2022-08-03T09:43:19.905Z,33.33
2022-08-03T09:46:35.265Z,34.18
2022-08-03T09:49:59.164Z,34.70
2022-08-03T09:53:09.940Z,34.42
2022-08-03T09:56:36.146Z,33.25
2022-08-03T09:59:46.510Z,33.51
2022-08-03T10:03:07.280Z,32.21
2022-08-03T10:06:19.264Z,31.92
2022-08-03T10:09:30.113Z,31.96
2022-08-03T10:12:41.023Z,32.34
2022-08-03T10:16:21.916Z,32.12
2022-08-03T10:19:22.879Z,32.45
2022-08-03T10:22:37.014Z,32.32
2022-08-03T10:25:53.550Z,32.41
2022-08-03T10:29:13.767Z,32.18
2022-08-03T10:32:29.305Z,31.39
2022-08-03T10:35:44.840Z,31.67
2022-08-03T10:38:59.220Z,30.89
2022-08-03T10:42:14.859Z,31.11
2022-08-03T10:45:27.341Z,30.70
2022-08-03T10:48:37.860Z,30.45
2022-08-03T10:51:54.269Z,30.60
2022-08-03T10:55:41.620Z,30.92
2022-08-03T10:58:57.434Z,29.70
2022-08-03T11:02:09.904Z,29.99
2022-08-03T11:05:27.861Z,29.54
2022-08-03T11:08:37.428Z,29.70
2022-08-03T11:12:02.837Z,29.57
2022-08-03T11:15:15.945Z,30.70
2022-08-03T11:18:27.002Z,29.93
2022-08-03T11:21:53.599Z,29.78
2022-08-03T11:25:04.310Z,29.82
2022-08-03T11:28:27.106Z,29.22
2022-08-03T11:31:51.800Z,28.66
2022-08-03T11:35:08.816Z,28.90
2022-08-03T11:38:24.330Z,29.63
2022-08-03T11:41:44.793Z,29.61
2022-08-03T11:44:56.955Z,29.46
2022-08-03T11:48:16.870Z,29.20
2022-08-03T11:51:31.759Z,29.24
2022-08-03T11:54:41.630Z,29.79
2022-08-03T11:59:01.582Z,29.36
2022-08-03T12:01:23.270Z,29.33
2022-08-03T12:04:50.888Z,28.66
2022-08-03T12:08:06.321Z,28.99
2022-08-03T12:11:17.268Z,28.81
2022-08-03T12:14:49.546Z,28.76
2022-08-03T12:17:57.968Z,29.96
2022-08-03T12:21:24.192Z,28.72
2022-08-03T12:24:42.200Z,28.86
2022-08-03T12:27:52.697Z,28.41
2022-08-03T12:31:08.450Z,29.11
2022-08-03T12:34:21.054Z,27.92
2022-08-03T12:37:35.046Z,28.22
2022-08-03T12:40:44.680Z,27.59
2022-08-03T12:43:54.906Z,27.35
2022-08-03T12:47:08.540Z,27.23
2022-08-03T12:50:27.340Z,27.44
2022-08-03T12:53:38.582Z,28.92
2022-08-03T12:57:00.204Z,27.77
2022-08-03T13:00:21.533Z,27.74
2022-08-03T13:03:43.343Z,27.25
2022-08-03T13:07:02.664Z,27.45
2022-08-03T13:10:28.965Z,27.40
2022-08-03T13:13:41.961Z,27.96
2022-08-03T13:16:51.769Z,27.88
2022-08-03T13:20:05.064Z,27.51
2022-08-03T13:23:22.304Z,27.02
2022-08-03T13:26:33.697Z,26.92
2022-08-03T13:29:44.069Z,26.36
2022-08-03T13:32:53.551Z,26.49
2022-08-03T13:36:03.053Z,26.37
2022-08-03T13:39:14.066Z,25.72
2022-08-03T13:42:27.614Z,25.75
2022-08-03T13:45:37.221Z,25.97
2022-08-03T13:48:46.695Z,25.44
2022-08-03T13:51:59.530Z,26.28
2022-08-03T13:55:12.329Z,26.54
2022-08-03T13:58:23.094Z,26.64
2022-08-03T14:01:54.200Z,26.99
2022-08-03T14:05:07.622Z,26.90
2022-08-03T14:08:17.144Z,26.89
2022-08-03T14:12:07.780Z,26.86
2022-08-03T14:15:02.254Z,27.23
2022-08-03T14:18:15.818Z,26.81
2022-08-03T14:21:38.340Z,26.94
2022-08-03T14:24:47.856Z,27.19
2022-08-03T14:27:58.936Z,26.79
2022-08-03T14:32:09.230Z,26.10
2022-08-03T14:34:41.733Z,26.77
2022-08-03T14:37:51.891Z,26.84
2022-08-03T14:41:01.594Z,27.73
2022-08-03T14:44:14.527Z,26.82
2022-08-03T14:47:25.370Z,26.15
2022-08-03T14:50:41.960Z,26.38
2022-08-03T14:53:53.918Z,26.95
2022-08-03T14:57:03.637Z,26.78
2022-08-03T15:00:14.191Z,26.86
2022-08-03T15:03:25.845Z,26.76
2022-08-03T15:06:35.365Z,27.00
2022-08-03T15:09:44.834Z,26.62
2022-08-03T15:12:55.046Z,27.01
2022-08-03T15:16:09.871Z,26.66
2022-08-03T15:20:03.797Z,26.41
2022-08-03T15:22:52.427Z,26.75
2022-08-03T15:26:32.922Z,27.22
2022-08-03T15:30:05.758Z,27.23
2022-08-03T15:33:03.704Z,26.78
2022-08-03T15:36:14.524Z,27.09
2022-08-03T15:39:24.190Z,27.48
2022-08-03T15:42:34.949Z,27.03
2022-08-03T15:45:44.853Z,27.40
2022-08-03T15:48:54.595Z,27.67
2022-08-03T15:52:05.928Z,27.57
2022-08-03T15:55:18.351Z,27.50
2022-08-03T15:59:09.467Z,27.89
2022-08-03T16:01:59.586Z,28.18
2022-08-03T16:05:09.745Z,27.86
2022-08-03T16:08:20.559Z,28.03
2022-08-03T16:11:30.425Z,27.47
2022-08-03T16:14:51.442Z,27.24
2022-08-03T16:18:02.135Z,27.80
2022-08-03T16:21:17.796Z,28.08
2022-08-03T16:24:30.970Z,28.59
2022-08-03T16:28:03.130Z,28.68
2022-08-03T16:31:11.067Z,28.44
2022-08-03T16:34:21.153Z,28.41
2022-08-03T16:37:39.492Z,28.78
2022-08-03T16:40:54.135Z,29.08
2022-08-03T16:44:09.925Z,28.78
2022-08-03T16:47:23.071Z,28.95
2022-08-03T16:50:32.931Z,29.56
2022-08-03T16:54:05.464Z,29.71
2022-08-03T16:57:14.875Z,29.95
2022-08-03T17:00:34.222Z,29.19
2022-08-03T17:04:01.561Z,30.08
2022-08-03T17:07:13.471Z,30.00
2022-08-03T17:10:27.460Z,30.78
2022-08-03T17:13:39.737Z,30.36
2022-08-03T17:16:52.549Z,30.45
2022-08-03T17:20:10.087Z,31.70
2022-08-03T17:23:34.643Z,31.33
2022-08-03T17:26:50.096Z,31.63
2022-08-03T17:30:05.565Z,31.28
2022-08-03T17:33:20.608Z,31.23
2022-08-03T17:37:01.736Z,31.79
2022-08-03T17:40:03.835Z,32.32
2022-08-03T17:44:13.476Z,33.04
2022-08-03T17:46:51.021Z,33.65
2022-08-03T17:50:00.659Z,34.16
2022-08-03T17:53:24.210Z,34.54
2022-08-03T17:56:48.076Z,35.88
2022-08-03T18:00:27.739Z,37.03
2022-08-03T18:03:58.352Z,37.95
2022-08-03T18:07:12.457Z,38.73
2022-08-03T18:10:28.112Z,39.10
2022-08-03T18:13:45.318Z,40.25
2022-08-03T18:17:10.264Z,42.13
2022-08-03T18:20:34.013Z,42.31
2022-08-03T18:23:52.654Z,43.39
2022-08-03T18:27:07.948Z,43.94
2022-08-03T18:30:17.675Z,44.44
2022-08-03T18:34:16.308Z,44.81
2022-08-03T18:37:08.098Z,46.00
2022-08-03T18:40:21.008Z,46.21
2022-08-03T18:43:47.417Z,46.50
2022-08-03T18:47:16.705Z,47.30
2022-08-03T18:50:34.943Z,47.01
2022-08-03T18:57:37.942Z,49.07
2022-08-03T19:00:58.183Z,48.98
2022-08-03T19:04:12.611Z,50.14
2022-08-03T19:07:27.529Z,50.87
2022-08-03T19:11:00.497Z,50.92
2022-08-03T19:14:12.540Z,51.66
2022-08-03T19:17:29.354Z,51.88
2022-08-03T19:20:41.560Z,52.68
2022-08-03T19:24:00.705Z,52.74
2022-08-03T19:27:12.779Z,53.75
2022-08-03T19:30:38.577Z,53.20
2022-08-03T19:33:57.433Z,53.80
2022-08-03T19:37:14.615Z,54.68
2022-08-03T19:40:27.266Z,55.67
2022-08-03T19:43:49.537Z,55.98
2022-08-03T19:47:16.968Z,56.63
2022-08-03T19:50:30.683Z,56.90
2022-08-03T19:53:45.104Z,57.59
2022-08-03T19:56:56.456Z,57.59
2022-08-03T20:00:13.987Z,57.77
2022-08-03T20:03:42.794Z,57.54
2022-08-03T20:06:56.909Z,57.85
2022-08-03T20:10:08.843Z,58.83
2022-08-03T20:13:21.446Z,58.25
2022-08-03T20:16:40.094Z,59.58
2022-08-03T20:19:54.213Z,58.96
2022-08-03T20:23:07.441Z,59.27
2022-08-03T20:26:20.126Z,59.82
2022-08-03T20:30:05.300Z,60.43
2022-08-03T20:33:03.128Z,61.34
2022-08-03T20:36:13.140Z,61.30
2022-08-03T20:39:25.611Z,62.35
2022-08-03T20:42:37.038Z,62.58
2022-08-03T20:45:59.416Z,63.10
2022-08-03T20:49:23.310Z,63.43
2022-08-03T20:52:33.701Z,63.43
2022-08-03T20:55:48.294Z,63.44
2022-08-03T20:59:15.187Z,64.43
2022-08-03T21:02:30.382Z,64.27
2022-08-03T21:05:51.592Z,64.67
2022-08-03T21:09:06.580Z,65.08
2022-08-03T21:12:27.001Z,65.18
2022-08-03T21:13:10.079Z,48.76
2022-08-03T21:16:12.361Z,65.37
2022-08-03T21:19:11.910Z,65.46
2022-08-03T21:22:25.009Z,66.12
2022-08-03T21:25:40.071Z,66.11
2022-08-03T21:28:51.083Z,66.13
2022-08-03T21:32:03.794Z,66.42
2022-08-03T21:35:17.013Z,66.25
2022-08-03T21:38:30.450Z,66.49
2022-08-03T21:41:41.131Z,66.32
2022-08-03T21:44:52.304Z,66.67
2022-08-03T21:48:04.526Z,67.78
2022-08-03T21:51:19.141Z,67.88
2022-08-03T21:54:38.181Z,68.24
2022-08-03T21:57:54.536Z,68.09
2022-08-03T22:01:07.773Z,68.93
2022-08-03T22:04:50.144Z,68.83
2022-08-03T22:07:49.619Z,68.54
2022-08-03T22:11:04.379Z,69.30
2022-08-03T22:14:14.510Z,69.96
2022-08-03T22:17:55.810Z,69.36
2022-08-03T22:21:00.554Z,69.89
2022-08-03T22:24:10.660Z,70.27
2022-08-03T22:27:31.150Z,69.74
2022-08-03T22:30:42.272Z,70.13
2022-08-03T22:33:53.121Z,70.39
2022-08-03T22:37:04.700Z,71.19
2022-08-03T22:40:18.109Z,71.27
2022-08-03T22:43:31.404Z,71.31
2022-08-03T22:46:47.511Z,71.78
2022-08-03T22:50:32.378Z,72.12
2022-08-03T22:53:32.713Z,71.68
2022-08-03T22:56:42.902Z,72.95
2022-08-03T22:59:53.755Z,73.14
2022-08-03T23:03:07.194Z,73.29
2022-08-03T23:06:29.589Z,73.22
